Terminal Aerodrome Forecast
Issued by NWS

Home | Current Version | Previous Version | Text Only | Print | Product List | Glossary On
Versions: 1 2 3 4 5 6 7 8 9 10 11 12 13 14 15 16 17 18 19 20 21 22 23
000
FTUS45 KGGW 061700
TAFOLF
TAF
KOLF 061728Z 0618/0718 34012KT P6SM -SHRA SCT016 OVC080
     FM070000 34014KT P6SM OVC050
     FM071200 32012KT P6SM SCT025=

USA.gov is the U.S. government's official web portal to all federal, state and local government web resources and services.